Time;durP1;ratioP1;P1;durP2;ratioP2;P2;SDS_P1;SDS_P2;PMS_P1;PMS_P2;Temp;Humidity;BMP_temperature;BMP_pressure;BME280_temperature;BME280_humidity;BME280_pressure;Samples;Min_cycle;Max_cycle;Signal;HPM_P1;HPM_P2
2023/03/24 00:01:12;;;;;;;;;;;;;;;12.26;100.00;95021.44;10514767;28;1975;-73
2023/03/24 00:06:17;;;;;;;;;;;;;;;12.24;100.00;95020.97;10517414;28;2159;-72
2023/03/24 00:11:21;;;;;;;;;;;;;;;12.25;100.00;95005.59;10505773;28;2055;-72
2023/03/24 00:16:25;;;;;;;;;;;;;;;12.17;100.00;94989.03;10511990;28;1989;-74
2023/03/24 00:21:28;;;;;;;;;;;;;;;12.13;100.00;94977.28;10506708;28;2029;-72
2023/03/24 00:26:31;;;;;;;;;;;;;;;12.05;100.00;94966.41;10505236;28;1975;-72
2023/03/24 00:31:38;;;;;;;;;;;;;;;12.00;100.00;94961.13;10504984;28;2044;-78
2023/03/24 00:36:42;;;;;;;;;;;;;;;12.01;100.00;94949.25;10511681;28;1987;-73
2023/03/24 00:47:24;;;;;;;;;;;;;;;11.89;100.00;94955.94;10515369;28;1987;-73
2023/03/24 00:52:32;;;;;;;;;;;;;;;11.97;100.00;94940.22;10507671;28;2039;-72
2023/03/24 00:57:36;;;;;;;;;;;;;;;11.93;100.00;94941.91;10502103;28;2044;-73
2023/03/24 01:02:45;;;;;;;;;;;;;;;11.77;100.00;94947.59;10508686;28;2012;-72
2023/03/24 01:07:50;;;;;;;;;;;;;;;11.79;100.00;94945.38;10486030;28;2090;-72
2023/03/24 01:12:54;;;;;;;;;;;;;;;11.72;100.00;94960.34;10511172;28;1998;-73
2023/03/24 01:17:56;;;;;;;;;;;;;;;11.66;100.00;94959.66;10501438;28;2114;-73
2023/03/24 01:22:59;;;;;;;;;;;;;;;11.60;100.00;94955.47;10505760;28;2130;-72
2023/03/24 01:28:01;;;;;;;;;;;;;;;11.57;100.00;94954.16;10511714;28;1958;-72
2023/03/24 01:33:04;;;;;;;;;;;;;;;11.61;100.00;94951.66;10502602;28;1970;-73
2023/03/24 01:38:07;;;;;;;;;;;;;;;11.76;100.00;94939.78;10511134;28;1955;-71
2023/03/24 01:43:10;;;;;;;;;;;;;;;11.83;100.00;94930.25;10502894;28;2068;-74
2023/03/24 01:48:12;;;;;;;;;;;;;;;11.89;100.00;94926.31;10507179;28;1963;-73
2023/03/24 01:53:15;;;;;;;;;;;;;;;11.87;100.00;94911.59;10524322;28;1951;-74
2023/03/24 01:58:20;;;;;;;;;;;;;;;11.92;100.00;94908.78;10523557;28;1502;-74
2023/03/24 02:03:22;;;;;;;;;;;;;;;11.99;100.00;94916.44;10504146;28;1937;-76
2023/03/24 02:08:26;;;;;;;;;;;;;;;11.99;100.00;94935.31;10485271;28;1986;-77
2023/03/24 02:13:28;;;;;;;;;;;;;;;12.08;100.00;94923.50;10499054;28;1961;-73
2023/03/24 02:18:32;;;;;;;;;;;;;;;12.09;100.00;94914.34;10500011;28;1994;-75
2023/03/24 02:23:34;;;;;;;;;;;;;;;11.96;100.00;94917.03;10506156;28;2016;-73
2023/03/24 02:28:37;;;;;;;;;;;;;;;11.98;100.00;94925.63;10507539;28;2054;-72
2023/03/24 02:33:40;;;;;;;;;;;;;;;12.04;100.00;94924.44;10504937;28;2082;-72
2023/03/24 02:38:42;;;;;;;;;;;;;;;12.07;100.00;94926.50;10503859;28;1994;-71
2023/03/24 02:43:55;;;;;;;;;;;;;;;12.09;100.00;94921.63;10498711;28;2024;-74
2023/03/24 02:48:57;;;;;;;;;;;;;;;11.85;100.00;94916.47;10502888;28;2008;-73
2023/03/24 02:54:00;;;;;;;;;;;;;;;11.70;100.00;94904.09;10500270;28;2084;-73
2023/03/24 02:59:03;;;;;;;;;;;;;;;11.62;100.00;94910.19;10499129;28;2299;-77
2023/03/24 03:04:05;;;;;;;;;;;;;;;11.63;100.00;94912.56;10503749;28;2082;-74
2023/03/24 03:09:08;;;;;;;;;;;;;;;11.65;100.00;94906.91;10509489;28;2073;-73
2023/03/24 03:14:13;;;;;;;;;;;;;;;11.65;100.00;94912.28;10500804;28;2051;-74
2023/03/24 03:19:25;;;;;;;;;;;;;;;11.48;100.00;94895.94;10506726;28;2068;-72
2023/03/24 03:24:28;;;;;;;;;;;;;;;11.46;100.00;94893.56;10505406;28;2030;-74
2023/03/24 03:29:32;;;;;;;;;;;;;;;11.33;100.00;94886.31;10509012;28;2032;-72
2023/03/24 03:34:36;;;;;;;;;;;;;;;11.43;100.00;94877.22;10508384;28;2187;-72
2023/03/24 03:39:38;;;;;;;;;;;;;;;11.48;100.00;94871.72;10505190;28;2039;-72
2023/03/24 03:44:41;;;;;;;;;;;;;;;11.50;100.00;94856.06;10504141;28;1984;-74
2023/03/24 03:49:44;;;;;;;;;;;;;;;11.49;100.00;94820.28;10508847;28;1963;-73
2023/03/24 03:54:47;;;;;;;;;;;;;;;11.49;100.00;94808.72;10500591;28;2149;-73
2023/03/24 03:59:49;;;;;;;;;;;;;;;11.51;100.00;94810.00;10514319;28;2053;-74
2023/03/24 04:04:52;;;;;;;;;;;;;;;11.50;100.00;94800.34;10509436;28;2074;-74
2023/03/24 04:10:07;;;;;;;;;;;;;;;11.44;100.00;94795.38;10493718;28;1966;-74
2023/03/24 04:15:10;;;;;;;;;;;;;;;11.38;100.00;94806.25;10508300;28;2057;-73
2023/03/24 04:20:13;;;;;;;;;;;;;;;11.46;100.00;94802.06;10502736;28;2102;-75
2023/03/24 04:25:18;;;;;;;;;;;;;;;11.46;100.00;94799.38;10502642;28;1947;-75
2023/03/24 04:30:23;;;;;;;;;;;;;;;11.46;100.00;94801.28;10508423;28;2044;-77
2023/03/24 04:35:30;;;;;;;;;;;;;;;11.59;100.00;94805.84;10508625;28;1983;-73
2023/03/24 04:40:35;;;;;;;;;;;;;;;11.63;100.00;94801.41;10514517;28;1990;-74
2023/03/24 04:45:38;;;;;;;;;;;;;;;11.68;100.00;94806.69;10511012;28;2106;-75
2023/03/24 04:50:44;;;;;;;;;;;;;;;11.66;100.00;94800.81;10508259;28;1958;-75
2023/03/24 04:55:47;;;;;;;;;;;;;;;11.56;100.00;94809.91;10508148;28;2067;-77
2023/03/24 05:00:51;;;;;;;;;;;;;;;11.55;100.00;94804.84;10509640;28;1994;-74
2023/03/24 05:05:53;;;;;;;;;;;;;;;11.62;100.00;94818.66;10511343;28;2068;-71
2023/03/24 05:10:56;;;;;;;;;;;;;;;11.65;100.00;94810.00;10506101;28;2110;-74
2023/03/24 05:15:58;;;;;;;;;;;;;;;11.73;100.00;94822.75;10511341;28;2055;-73
2023/03/24 05:21:02;;;;;;;;;;;;;;;11.76;100.00;94835.56;10502220;28;1969;-73
2023/03/24 05:26:04;;;;;;;;;;;;;;;11.61;100.00;94855.56;10500276;28;1993;-74
2023/03/24 05:31:07;;;;;;;;;;;;;;;11.41;100.00;94855.19;10504061;28;2045;-72
2023/03/24 05:36:10;;;;;;;;;;;;;;;11.27;100.00;94874.84;10502638;28;1962;-72
2023/03/24 05:41:12;;;;;;;;;;;;;;;11.22;100.00;94877.63;10501052;28;2094;-72
2023/03/24 05:46:14;;;;;;;;;;;;;;;11.24;100.00;94861.97;10499304;28;2068;-72
2023/03/24 05:51:17;;;;;;;;;;;;;;;11.15;100.00;94854.91;10500882;28;2026;-73
2023/03/24 05:56:19;;;;;;;;;;;;;;;11.01;100.00;94868.38;10503938;28;2096;-72
2023/03/24 06:01:24;;;;;;;;;;;;;;;10.88;100.00;94883.38;10517275;28;1824;-73
2023/03/24 06:06:28;;;;;;;;;;;;;;;10.91;100.00;94882.00;10512281;28;1994;-72
2023/03/24 06:11:30;;;;;;;;;;;;;;;11.10;100.00;94859.28;10511401;28;2020;-79
2023/03/24 06:16:33;;;;;;;;;;;;;;;11.25;100.00;94847.44;10510087;28;1971;-77
2023/03/24 06:21:43;;;;;;;;;;;;;;;11.54;100.00;94806.72;10511652;28;1987;-73
2023/03/24 06:26:48;;;;;;;;;;;;;;;11.64;100.00;94808.38;10515492;28;1970;-77
2023/03/24 06:32:01;;;;;;;;;;;;;;;11.67;100.00;94829.34;10508001;28;1983;-73
2023/03/24 06:37:04;;;;;;;;;;;;;;;11.85;100.00;94839.19;10506145;28;2100;-73
2023/03/24 06:42:17;;;;;;;;;;;;;;;11.92;100.00;94813.72;10503360;28;1989;-73
2023/03/24 06:47:29;;;;;;;;;;;;;;;11.84;100.00;94818.75;10507350;28;1954;-72
2023/03/24 06:52:33;;;;;;;;;;;;;;;11.88;100.00;94808.94;10511509;28;1974;-74
2023/03/24 06:57:35;;;;;;;;;;;;;;;11.93;100.00;94810.72;10510893;28;1943;-75
2023/03/24 07:02:39;;;;;;;;;;;;;;;12.12;100.00;94821.34;10506620;28;2016;-75
2023/03/24 07:07:41;;;;;;;;;;;;;;;12.14;100.00;94811.03;10508748;28;1990;-76
2023/03/24 07:12:49;;;;;;;;;;;;;;;11.96;100.00;94826.28;10517095;28;2054;-75
2023/03/24 07:17:52;;;;;;;;;;;;;;;11.75;100.00;94852.84;10510021;28;2005;-71
2023/03/24 07:22:55;;;;;;;;;;;;;;;11.69;100.00;94845.19;10512122;28;1942;-71
2023/03/24 07:27:58;;;;;;;;;;;;;;;11.59;100.00;94870.44;10513574;28;2054;-72
2023/03/24 07:33:01;;;;;;;;;;;;;;;11.45;100.00;94899.22;10512755;28;2203;-71
2023/03/24 07:38:05;;;;;;;;;;;;;;;11.39;100.00;94914.72;10503999;28;1948;-71
2023/03/24 07:43:08;;;;;;;;;;;;;;;11.40;100.00;94916.28;10511064;28;1978;-73
2023/03/24 07:48:11;;;;;;;;;;;;;;;11.48;100.00;94909.41;10508304;28;1971;-75
2023/03/24 07:53:18;;;;;;;;;;;;;;;11.59;100.00;94924.25;10512475;28;1960;-71
2023/03/24 07:58:21;;;;;;;;;;;;;;;11.77;100.00;94930.59;10512412;28;2024;-73
2023/03/24 08:03:26;;;;;;;;;;;;;;;11.91;100.00;94931.44;10515540;28;1971;-72
2023/03/24 08:08:31;;;;;;;;;;;;;;;11.92;100.00;94933.03;10495016;28;1966;-73
2023/03/24 08:13:35;;;;;;;;;;;;;;;11.95;100.00;94943.19;10507794;28;2054;-73
2023/03/24 08:18:38;;;;;;;;;;;;;;;11.96;100.00;94933.19;10511719;28;1975;-70
2023/03/24 08:23:43;;;;;;;;;;;;;;;12.01;100.00;94936.59;10506303;28;1918;-71
2023/03/24 08:28:45;;;;;;;;;;;;;;;12.21;100.00;94929.16;10509467;28;1931;-70
2023/03/24 08:33:49;;;;;;;;;;;;;;;12.45;100.00;94938.56;10509255;28;1970;-71
2023/03/24 08:38:53;;;;;;;;;;;;;;;12.57;100.00;94931.81;10505987;28;2006;-71
2023/03/24 08:43:56;;;;;;;;;;;;;;;12.63;100.00;94936.78;10508807;28;1980;-70
2023/03/24 08:48:58;;;;;;;;;;;;;;;12.67;100.00;94956.66;10511669;28;1999;-71
2023/03/24 08:54:02;;;;;;;;;;;;;;;12.76;100.00;94955.91;10502360;28;1997;-72
2023/03/24 08:59:05;;;;;;;;;;;;;;;12.88;100.00;94970.44;10504527;28;1992;-71
2023/03/24 09:04:13;;;;;;;;;;;;;;;12.89;100.00;94971.22;10513320;28;2003;-71
2023/03/24 09:09:15;;;;;;;;;;;;;;;12.89;100.00;94963.94;10506929;28;2019;-71
2023/03/24 09:14:18;;;;;;;;;;;;;;;12.85;100.00;94972.94;10514286;28;1982;-72
2023/03/24 09:19:21;;;;;;;;;;;;;;;12.88;100.00;94986.63;10499151;28;1939;-72
2023/03/24 09:24:25;;;;;;;;;;;;;;;12.92;100.00;94971.41;10500415;28;1985;-72
2023/03/24 09:29:28;;;;;;;;;;;;;;;12.94;100.00;94974.59;10508574;28;2076;-70
2023/03/24 09:34:32;;;;;;;;;;;;;;;13.00;100.00;94980.66;10502992;28;2121;-77
2023/03/24 09:39:43;;;;;;;;;;;;;;;12.75;100.00;95000.16;10523803;28;2014;-70
2023/03/24 09:44:46;;;;;;;;;;;;;;;12.49;100.00;95013.44;10505579;28;1962;-73
2023/03/24 09:50:01;;;;;;;;;;;;;;;12.34;100.00;95020.75;10504776;28;1998;-72
2023/03/24 09:55:03;;;;;;;;;;;;;;;12.19;100.00;95026.47;10513293;28;1951;-74
2023/03/24 10:00:06;;;;;;;;;;;;;;;12.02;100.00;95034.34;10504756;28;2024;-70
2023/03/24 10:05:09;;;;;;;;;;;;;;;11.95;100.00;95036.66;10502670;28;1995;-70
2023/03/24 10:10:12;;;;;;;;;;;;;;;11.86;100.00;95048.13;10496725;28;1956;-74
2023/03/24 10:15:15;;;;;;;;;;;;;;;12.07;100.00;95047.72;10512624;28;2038;-74
2023/03/24 10:20:37;;;;;;;;;;;;;;;12.28;100.00;95059.69;10508010;28;1987;-74
2023/03/24 10:25:40;;;;;;;;;;;;;;;12.34;100.00;95060.34;10517605;28;2036;-73
2023/03/24 10:30:46;;;;;;;;;;;;;;;12.44;100.00;95062.84;10512647;28;2168;-72
2023/03/24 10:35:51;;;;;;;;;;;;;;;12.41;100.00;95063.47;10512000;28;2047;-71
2023/03/24 10:40:54;;;;;;;;;;;;;;;12.50;100.00;95060.84;10527793;27;1990;-73
2023/03/24 10:45:57;;;;;;;;;;;;;;;12.61;100.00;95057.63;10515403;28;2148;-72
2023/03/24 10:51:01;;;;;;;;;;;;;;;12.64;100.00;95050.81;10518274;28;2288;-73
2023/03/24 10:56:04;;;;;;;;;;;;;;;12.58;100.00;95060.13;10516767;28;2080;-73
2023/03/24 11:01:06;;;;;;;;;;;;;;;12.46;100.00;95060.63;10509367;28;2040;-71
2023/03/24 11:06:09;;;;;;;;;;;;;;;12.43;100.00;95067.44;10509862;28;2093;-71
2023/03/24 11:11:11;;;;;;;;;;;;;;;12.27;100.00;95060.78;10510724;28;1991;-71
2023/03/24 11:16:14;;;;;;;;;;;;;;;12.00;100.00;95066.97;10509693;28;2014;-74
2023/03/24 11:21:18;;;;;;;;;;;;;;;11.95;100.00;95077.03;10506561;28;2152;-72
2023/03/24 11:26:21;;;;;;;;;;;;;;;11.75;100.00;95076.31;10504295;28;1993;-73
2023/03/24 11:31:24;;;;;;;;;;;;;;;11.47;100.00;95051.25;10510168;28;1985;-72
2023/03/24 11:36:28;;;;;;;;;;;;;;;11.52;100.00;95059.25;10510713;28;1971;-72
2023/03/24 11:41:32;;;;;;;;;;;;;;;12.00;100.00;95033.84;10512006;28;1904;-72
2023/03/24 11:46:34;;;;;;;;;;;;;;;12.85;100.00;95011.53;10506203;28;1987;-73
2023/03/24 11:51:47;;;;;;;;;;;;;;;13.54;100.00;94997.66;10511027;28;2030;-73
2023/03/24 11:56:49;;;;;;;;;;;;;;;14.33;100.00;94996.78;10505643;28;2095;-73
2023/03/24 12:02:02;;;;;;;;;;;;;;;14.82;100.00;94981.25;10509901;28;1965;-76
2023/03/24 12:07:14;;;;;;;;;;;;;;;15.52;100.00;94961.03;10509605;28;2067;-73
2023/03/24 12:12:17;;;;;;;;;;;;;;;15.75;100.00;94952.69;10512915;28;2021;-71
2023/03/24 12:17:20;;;;;;;;;;;;;;;16.06;100.00;94936.91;10512500;28;2074;-73
2023/03/24 12:22:23;;;;;;;;;;;;;;;16.22;100.00;94928.97;10510868;28;1963;-72
2023/03/24 12:27:26;;;;;;;;;;;;;;;16.14;100.00;94929.81;10504582;28;2047;-71
2023/03/24 12:32:28;;;;;;;;;;;;;;;16.14;100.00;94919.78;10503732;28;1947;-80
2023/03/24 12:37:31;;;;;;;;;;;;;;;16.01;100.00;94939.78;10519226;28;1832;-73
2023/03/24 12:42:33;;;;;;;;;;;;;;;16.02;100.00;94937.88;10512283;28;2003;-75
2023/03/24 12:47:36;;;;;;;;;;;;;;;15.71;100.00;94940.91;10512889;28;1987;-75
2023/03/24 12:52:38;;;;;;;;;;;;;;;15.36;100.00;94939.09;10514695;28;2110;-75
2023/03/24 12:58:13;;;;;;;;;;;;;;;15.07;100.00;94947.94;10507905;28;1951;-74
2023/03/24 13:03:16;;;;;;;;;;;;;;;14.85;100.00;94937.31;10499701;28;1973;-74
2023/03/24 13:08:21;;;;;;;;;;;;;;;14.41;100.00;94958.16;10513566;28;2012;-71
2023/03/24 13:13:24;;;;;;;;;;;;;;;14.17;100.00;94960.50;10508147;28;1966;-78
2023/03/24 13:18:27;;;;;;;;;;;;;;;13.68;100.00;94955.16;10487347;28;1970;-72
2023/03/24 13:23:30;;;;;;;;;;;;;;;13.03;100.00;94949.56;10511114;28;2080;-73
2023/03/24 13:28:32;;;;;;;;;;;;;;;12.98;100.00;94927.03;10509315;28;1998;-71
2023/03/24 13:33:36;;;;;;;;;;;;;;;13.38;100.00;94923.59;10513500;28;1960;-72
2023/03/24 13:38:38;;;;;;;;;;;;;;;13.85;100.00;94924.69;10502248;28;1971;-72
2023/03/24 13:43:40;;;;;;;;;;;;;;;14.19;100.00;94901.53;10504550;28;2025;-73
2023/03/24 13:48:43;;;;;;;;;;;;;;;13.77;100.00;94887.66;10490745;28;1983;-72
2023/03/24 13:53:46;;;;;;;;;;;;;;;13.69;100.00;94904.63;10505449;28;1998;-73
2023/03/24 13:58:49;;;;;;;;;;;;;;;13.76;100.00;94902.28;10506774;28;2216;-74
2023/03/24 14:03:51;;;;;;;;;;;;;;;13.85;100.00;94873.34;10509704;28;2446;-71
2023/03/24 14:08:54;;;;;;;;;;;;;;;13.75;100.00;94858.25;10508852;28;2020;-76
2023/03/24 14:13:57;;;;;;;;;;;;;;;13.58;100.00;94857.44;10507825;28;2107;-76
2023/03/24 14:19:02;;;;;;;;;;;;;;;13.52;100.00;94859.47;10503546;28;1959;-75
2023/03/24 14:24:05;;;;;;;;;;;;;;;13.72;100.00;94863.47;10504232;28;2035;-72
2023/03/24 14:29:08;;;;;;;;;;;;;;;13.61;100.00;94862.19;10513305;28;1970;-72
2023/03/24 14:34:13;;;;;;;;;;;;;;;13.43;100.00;94853.28;10509901;28;1942;-72
2023/03/24 14:39:16;;;;;;;;;;;;;;;13.33;100.00;94840.84;10504154;28;1907;-72
2023/03/24 14:44:20;;;;;;;;;;;;;;;13.25;100.00;94818.13;10504229;28;1979;-74
2023/03/24 14:49:23;;;;;;;;;;;;;;;13.09;100.00;94810.72;10504299;28;1971;-74
2023/03/24 14:54:26;;;;;;;;;;;;;;;13.14;100.00;94832.19;10506119;28;1982;-73
2023/03/24 14:59:28;;;;;;;;;;;;;;;13.07;100.00;94846.13;10503004;28;1998;-73
2023/03/24 15:04:39;;;;;;;;;;;;;;;13.22;100.00;94861.13;10514080;28;2121;-72
2023/03/24 15:09:42;;;;;;;;;;;;;;;13.38;100.00;94854.19;10513106;28;2082;-75
2023/03/24 15:14:49;;;;;;;;;;;;;;;13.60;100.00;94850.59;10514998;28;2056;-73
2023/03/24 15:19:52;;;;;;;;;;;;;;;13.64;100.00;94856.16;10516521;28;2027;-72
2023/03/24 15:24:55;;;;;;;;;;;;;;;13.39;100.00;94861.19;10505227;28;2006;-71
2023/03/24 15:29:57;;;;;;;;;;;;;;;13.13;100.00;94868.38;10511536;28;2137;-73
2023/03/24 15:35:01;;;;;;;;;;;;;;;13.02;100.00;94869.75;10510664;28;2201;-73
2023/03/24 15:40:05;;;;;;;;;;;;;;;12.85;100.00;94870.44;10516241;28;2015;-73
2023/03/24 15:45:15;;;;;;;;;;;;;;;12.77;100.00;94887.38;10511037;28;2085;-72
2023/03/24 15:50:17;;;;;;;;;;;;;;;12.56;100.00;94900.59;10513936;28;2038;-72
2023/03/24 15:55:20;;;;;;;;;;;;;;;12.51;100.00;94904.19;10506486;28;2029;-73
2023/03/24 16:00:22;;;;;;;;;;;;;;;12.29;100.00;94931.16;10510787;28;2036;-74
2023/03/24 16:05:25;;;;;;;;;;;;;;;11.96;100.00;94947.50;10504162;28;2169;-71
2023/03/24 16:10:30;;;;;;;;;;;;;;;11.42;100.00;94961.72;10505689;28;1990;-72
2023/03/24 16:15:35;;;;;;;;;;;;;;;10.85;100.00;94959.25;10501607;28;2310;-73
2023/03/24 16:20:37;;;;;;;;;;;;;;;10.53;100.00;94978.84;10507510;28;2030;-72
2023/03/24 16:25:41;;;;;;;;;;;;;;;10.24;100.00;94990.56;10503855;28;1982;-71
2023/03/24 16:30:44;;;;;;;;;;;;;;;10.09;100.00;95004.16;10529520;28;2030;-74
2023/03/24 16:35:48;;;;;;;;;;;;;;;9.96;100.00;94986.06;10508242;28;2039;-72
2023/03/24 16:40:51;;;;;;;;;;;;;;;9.90;100.00;94981.84;10491683;28;1951;-74
2023/03/24 16:45:54;;;;;;;;;;;;;;;9.88;100.00;94968.72;10504582;28;2080;-73
2023/03/24 16:50:57;;;;;;;;;;;;;;;9.86;100.00;94980.81;10506632;28;1990;-73
2023/03/24 16:56:00;;;;;;;;;;;;;;;9.91;100.00;94967.34;10506187;28;1974;-73
2023/03/24 17:01:03;;;;;;;;;;;;;;;9.87;100.00;94934.91;10509941;28;1994;-74
2023/03/24 17:06:06;;;;;;;;;;;;;;;9.91;100.00;94921.69;10506890;28;2109;-74
2023/03/24 17:11:09;;;;;;;;;;;;;;;9.91;100.00;94951.22;10502891;28;1919;-73
2023/03/24 17:16:13;;;;;;;;;;;;;;;9.92;100.00;94985.84;10509571;28;2091;-71
2023/03/24 17:21:16;;;;;;;;;;;;;;;9.91;100.00;94972.72;10501503;28;1956;-73
2023/03/24 17:26:19;;;;;;;;;;;;;;;9.92;100.00;94985.84;10503488;28;2041;-73
2023/03/24 17:31:23;;;;;;;;;;;;;;;9.92;100.00;94963.56;10508280;28;2124;-73
2023/03/24 17:36:26;;;;;;;;;;;;;;;9.91;100.00;94970.81;10505573;28;2006;-72
2023/03/24 17:41:29;;;;;;;;;;;;;;;9.92;100.00;94968.94;10515323;28;1971;-72
2023/03/24 17:46:33;;;;;;;;;;;;;;;9.83;100.00;94949.19;10498672;28;1910;-73
2023/03/24 17:51:36;;;;;;;;;;;;;;;9.89;100.00;94948.84;10501175;28;1962;-74
2023/03/24 17:56:38;;;;;;;;;;;;;;;9.93;100.00;94949.88;10508476;28;2153;-72
2023/03/24 18:01:41;;;;;;;;;;;;;;;9.89;100.00;94956.09;10503390;28;2072;-72
2023/03/24 18:06:45;;;;;;;;;;;;;;;9.88;100.00;94946.47;10510968;28;2069;-73
2023/03/24 18:11:47;;;;;;;;;;;;;;;9.90;100.00;94960.38;10507614;28;2013;-72
2023/03/24 18:16:50;;;;;;;;;;;;;;;9.93;100.00;94975.91;10499509;28;2117;-75
2023/03/24 18:21:53;;;;;;;;;;;;;;;9.87;100.00;94969.81;10506606;28;1954;-74
2023/03/24 18:26:56;;;;;;;;;;;;;;;9.73;100.00;94961.69;10500906;28;1986;-72
2023/03/24 18:31:59;;;;;;;;;;;;;;;9.63;100.00;94971.72;10505643;28;1963;-73
2023/03/24 18:37:03;;;;;;;;;;;;;;;9.59;100.00;94992.16;10513056;28;1930;-73
2023/03/24 18:42:05;;;;;;;;;;;;;;;9.58;100.00;94979.81;10512026;28;2033;-74
2023/03/24 18:47:10;;;;;;;;;;;;;;;9.58;100.00;94991.34;10517266;28;1963;-72
2023/03/24 18:52:16;;;;;;;;;;;;;;;9.55;100.00;94965.13;10524106;28;2098;-72
2023/03/24 18:57:20;;;;;;;;;;;;;;;9.56;100.00;94982.81;10507686;28;2141;-73
2023/03/24 19:02:23;;;;;;;;;;;;;;;9.62;100.00;94992.41;10508753;28;2018;-74
2023/03/24 19:07:26;;;;;;;;;;;;;;;9.62;100.00;95005.81;10509916;28;1986;-72
2023/03/24 19:12:29;;;;;;;;;;;;;;;9.60;100.00;95028.63;10514113;28;1928;-72
2023/03/24 19:17:39;;;;;;;;;;;;;;;9.53;100.00;95036.22;10513643;28;2047;-76
2023/03/24 19:22:42;;;;;;;;;;;;;;;9.58;100.00;95034.28;10509811;28;2027;-72
2023/03/24 19:27:44;;;;;;;;;;;;;;;9.57;100.00;95034.59;10514525;28;1939;-73
2023/03/24 19:32:47;;;;;;;;;;;;;;;9.63;100.00;95042.28;10513321;28;1962;-72
2023/03/24 19:37:50;;;;;;;;;;;;;;;9.70;100.00;95050.78;10507888;28;2026;-72
2023/03/24 19:42:52;;;;;;;;;;;;;;;9.69;100.00;95064.50;10502124;28;2117;-72
2023/03/24 19:48:05;;;;;;;;;;;;;;;9.69;100.00;95078.72;10493732;28;1979;-73
2023/03/24 19:53:07;;;;;;;;;;;;;;;9.70;100.00;95068.78;10509297;28;2051;-73
2023/03/24 19:58:11;;;;;;;;;;;;;;;9.69;100.00;95067.19;10507487;28;2045;-72
2023/03/24 20:03:13;;;;;;;;;;;;;;;9.63;100.00;95062.97;10511444;28;2022;-73
2023/03/24 20:08:17;;;;;;;;;;;;;;;9.52;100.00;95072.19;10508977;28;2119;-73
2023/03/24 20:13:22;;;;;;;;;;;;;;;9.42;100.00;95073.09;10506074;28;2073;-72
2023/03/24 20:18:25;;;;;;;;;;;;;;;9.30;100.00;95048.53;10504003;28;1939;-73
2023/03/24 20:23:27;;;;;;;;;;;;;;;9.29;100.00;95039.69;10505682;28;1986;-74
2023/03/24 20:28:30;;;;;;;;;;;;;;;9.28;100.00;95034.59;10513877;28;2037;-73
2023/03/24 20:33:33;;;;;;;;;;;;;;;9.23;100.00;95043.50;10509459;28;2012;-72
2023/03/24 20:38:36;;;;;;;;;;;;;;;9.24;100.00;95036.25;10511867;28;2010;-72
2023/03/24 20:43:38;;;;;;;;;;;;;;;9.18;100.00;95033.63;10507936;28;1971;-70
2023/03/24 20:48:41;;;;;;;;;;;;;;;9.15;100.00;95015.41;10507438;28;2037;-74
2023/03/24 20:53:46;;;;;;;;;;;;;;;9.08;100.00;95004.22;10523352;28;2108;-72
2023/03/24 20:58:51;;;;;;;;;;;;;;;9.05;100.00;95010.16;10512501;28;2177;-72
2023/03/24 21:03:53;;;;;;;;;;;;;;;8.96;100.00;94993.06;10505453;28;1975;-73
2023/03/24 21:09:10;;;;;;;;;;;;;;;8.93;100.00;95007.03;10507754;28;2117;-71
2023/03/24 21:14:13;;;;;;;;;;;;;;;8.96;100.00;95006.47;10501233;28;1979;-71
2023/03/24 21:19:17;;;;;;;;;;;;;;;8.92;100.00;95005.44;10504815;28;2117;-73
2023/03/24 21:24:30;;;;;;;;;;;;;;;8.89;100.00;95008.66;10508786;28;1967;-73
2023/03/24 21:29:32;;;;;;;;;;;;;;;8.84;100.00;95030.16;10508596;28;2085;-73
2023/03/24 21:34:35;;;;;;;;;;;;;;;8.82;100.00;95032.31;10499164;28;1946;-72
2023/03/24 21:39:37;;;;;;;;;;;;;;;8.75;100.00;95031.84;10490681;28;1957;-72
2023/03/24 21:44:41;;;;;;;;;;;;;;;8.73;100.00;95031.34;10485479;28;1981;-75
2023/03/24 21:49:44;;;;;;;;;;;;;;;8.70;100.00;95035.34;10499852;28;2037;-73
2023/03/24 21:54:46;;;;;;;;;;;;;;;8.73;100.00;95050.09;10501568;28;1982;-72
2023/03/24 21:59:49;;;;;;;;;;;;;;;8.66;100.00;95066.47;10506147;28;2192;-72
2023/03/24 22:04:52;;;;;;;;;;;;;;;8.69;100.00;95075.81;10504396;28;2141;-75
2023/03/24 22:09:54;;;;;;;;;;;;;;;8.60;100.00;95076.44;10514433;28;2133;-77
2023/03/24 22:14:57;;;;;;;;;;;;;;;8.60;100.00;95083.66;10522113;28;2090;-73
2023/03/24 22:20:10;;;;;;;;;;;;;;;8.61;100.00;95088.75;10514008;28;2025;-72
2023/03/24 22:25:23;;;;;;;;;;;;;;;8.52;100.00;95087.69;10512988;28;1982;-72
2023/03/24 22:30:25;;;;;;;;;;;;;;;8.55;100.00;95092.53;10515240;28;2022;-72
2023/03/24 22:35:28;;;;;;;;;;;;;;;8.48;100.00;95094.72;10509169;28;2110;-72
2023/03/24 22:40:30;;;;;;;;;;;;;;;8.46;100.00;95096.88;10515601;28;2004;-72
2023/03/24 22:45:33;;;;;;;;;;;;;;;8.32;100.00;95095.81;10515661;28;2023;-77
2023/03/24 22:50:36;;;;;;;;;;;;;;;8.29;100.00;95107.09;10510660;28;1999;-75
2023/03/24 22:55:40;;;;;;;;;;;;;;;8.20;100.00;95100.69;10517849;28;2377;-72
2023/03/24 23:00:44;;;;;;;;;;;;;;;8.11;100.00;95106.63;10502230;28;2055;-72
2023/03/24 23:05:46;;;;;;;;;;;;;;;8.13;100.00;95111.69;10502869;28;2088;-73
2023/03/24 23:10:50;;;;;;;;;;;;;;;8.12;100.00;95113.59;10510159;28;1946;-73
2023/03/24 23:15:53;;;;;;;;;;;;;;;8.11;100.00;95125.38;10508863;28;1981;-72
2023/03/24 23:20:56;;;;;;;;;;;;;;;8.08;100.00;95122.47;10507003;28;2192;-72
2023/03/24 23:25:59;;;;;;;;;;;;;;;8.03;100.00;95136.66;10507928;28;2092;-72
2023/03/24 23:31:02;;;;;;;;;;;;;;;8.07;100.00;95121.63;10504871;28;2100;-72
2023/03/24 23:36:05;;;;;;;;;;;;;;;7.95;100.00;95131.88;10512870;28;2128;-73
2023/03/24 23:41:07;;;;;;;;;;;;;;;7.89;100.00;95140.97;10505889;28;2069;-71
2023/03/24 23:46:11;;;;;;;;;;;;;;;7.78;100.00;95136.72;10513742;28;1950;-72
2023/03/24 23:51:13;;;;;;;;;;;;;;;7.70;100.00;95140.75;10517927;28;1959;-72
2023/03/24 23:56:20;;;;;;;;;;;;;;;7.65;100.00;95142.63;10510080;28;2049;-72
